sensor_id;sensor_type;location;lat;lon;timestamp;P1;durP1;ratioP1;P2;durP2;ratioP2
18653;SDS011;9456;47.824;16.228;2023-06-05T00:00:24;42.10;;;33.73;;
18653;SDS011;9456;47.824;16.228;2023-06-05T00:03:00;44.33;;;35.27;;
18653;SDS011;9456;47.824;16.228;2023-06-05T00:05:29;40.83;;;32.97;;
18653;SDS011;9456;47.824;16.228;2023-06-05T00:07:58;50.67;;;39.83;;
18653;SDS011;9456;47.824;16.228;2023-06-05T00:10:28;47.17;;;38.03;;
18653;SDS011;9456;47.824;16.228;2023-06-05T00:12:57;53.67;;;41.73;;
18653;SDS011;9456;47.824;16.228;2023-06-05T00:15:26;46.13;;;36.73;;
18653;SDS011;9456;47.824;16.228;2023-06-05T00:17:55;43.97;;;36.27;;
18653;SDS011;9456;47.824;16.228;2023-06-05T00:20:25;44.33;;;36.57;;
18653;SDS011;9456;47.824;16.228;2023-06-05T00:22:54;48.07;;;39.03;;
18653;SDS011;9456;47.824;16.228;2023-06-05T00:25:23;45.43;;;37.77;;
18653;SDS011;9456;47.824;16.228;2023-06-05T00:27:52;41.57;;;36.27;;
18653;SDS011;9456;47.824;16.228;2023-06-05T00:30:21;47.53;;;38.20;;
18653;SDS011;9456;47.824;16.228;2023-06-05T00:32:50;47.00;;;38.53;;
18653;SDS011;9456;47.824;16.228;2023-06-05T00:35:19;42.97;;;35.83;;
18653;SDS011;9456;47.824;16.228;2023-06-05T00:37:48;50.43;;;39.50;;
18653;SDS011;9456;47.824;16.228;2023-06-05T00:40:17;49.50;;;41.00;;
18653;SDS011;9456;47.824;16.228;2023-06-05T00:42:47;49.60;;;39.20;;
18653;SDS011;9456;47.824;16.228;2023-06-05T00:45:16;44.37;;;36.50;;
18653;SDS011;9456;47.824;16.228;2023-06-05T00:47:45;40.60;;;33.57;;
18653;SDS011;9456;47.824;16.228;2023-06-05T00:50:14;31.90;;;27.67;;
18653;SDS011;9456;47.824;16.228;2023-06-05T00:52:43;27.67;;;20.70;;
18653;SDS011;9456;47.824;16.228;2023-06-05T00:55:12;22.67;;;19.97;;
18653;SDS011;9456;47.824;16.228;2023-06-05T00:57:41;22.57;;;20.17;;
18653;SDS011;9456;47.824;16.228;2023-06-05T01:00:11;24.70;;;22.10;;
18653;SDS011;9456;47.824;16.228;2023-06-05T01:02:41;26.83;;;21.60;;
18653;SDS011;9456;47.824;16.228;2023-06-05T01:10:30;23.07;;;20.57;;
18653;SDS011;9456;47.824;16.228;2023-06-05T01:13:01;25.90;;;21.80;;
18653;SDS011;9456;47.824;16.228;2023-06-05T01:15:29;22.90;;;20.47;;
18653;SDS011;9456;47.824;16.228;2023-06-05T01:17:58;22.97;;;20.43;;
18653;SDS011;9456;47.824;16.228;2023-06-05T01:20:32;24.73;;;20.70;;
18653;SDS011;9456;47.824;16.228;2023-06-05T01:23:02;24.80;;;21.93;;
18653;SDS011;9456;47.824;16.228;2023-06-05T01:25:31;26.23;;;21.60;;
18653;SDS011;9456;47.824;16.228;2023-06-05T01:28:03;25.77;;;20.87;;
18653;SDS011;9456;47.824;16.228;2023-06-05T01:30:32;22.80;;;20.40;;
18653;SDS011;9456;47.824;16.228;2023-06-05T01:33:00;26.00;;;21.17;;
18653;SDS011;9456;47.824;16.228;2023-06-05T01:35:30;24.10;;;20.80;;
18653;SDS011;9456;47.824;16.228;2023-06-05T01:37:58;26.73;;;20.80;;
18653;SDS011;9456;47.824;16.228;2023-06-05T01:40:27;20.00;;;17.90;;
18653;SDS011;9456;47.824;16.228;2023-06-05T01:42:56;19.80;;;16.40;;
18653;SDS011;9456;47.824;16.228;2023-06-05T01:45:25;18.17;;;15.27;;
18653;SDS011;9456;47.824;16.228;2023-06-05T01:47:54;17.70;;;15.23;;
18653;SDS011;9456;47.824;16.228;2023-06-05T01:50:23;17.03;;;13.87;;
18653;SDS011;9456;47.824;16.228;2023-06-05T01:52:52;17.63;;;14.07;;
18653;SDS011;9456;47.824;16.228;2023-06-05T01:55:21;15.57;;;13.87;;
18653;SDS011;9456;47.824;16.228;2023-06-05T01:57:50;17.13;;;15.03;;
18653;SDS011;9456;47.824;16.228;2023-06-05T02:00:19;15.97;;;13.57;;
18653;SDS011;9456;47.824;16.228;2023-06-05T02:02:49;16.83;;;14.57;;
18653;SDS011;9456;47.824;16.228;2023-06-05T02:05:18;15.83;;;14.17;;
18653;SDS011;9456;47.824;16.228;2023-06-05T02:07:51;17.40;;;15.53;;
18653;SDS011;9456;47.824;16.228;2023-06-05T02:10:20;17.73;;;15.93;;
18653;SDS011;9456;47.824;16.228;2023-06-05T02:12:49;19.03;;;15.57;;
18653;SDS011;9456;47.824;16.228;2023-06-05T02:15:18;19.47;;;16.87;;
18653;SDS011;9456;47.824;16.228;2023-06-05T02:17:47;23.43;;;17.63;;
18653;SDS011;9456;47.824;16.228;2023-06-05T02:20:17;18.97;;;16.87;;
18653;SDS011;9456;47.824;16.228;2023-06-05T02:22:46;19.87;;;16.13;;
18653;SDS011;9456;47.824;16.228;2023-06-05T02:25:15;19.07;;;16.50;;
18653;SDS011;9456;47.824;16.228;2023-06-05T02:27:44;19.27;;;16.03;;
18653;SDS011;9456;47.824;16.228;2023-06-05T02:30:13;20.07;;;17.77;;
18653;SDS011;9456;47.824;16.228;2023-06-05T02:32:43;21.10;;;16.43;;
18653;SDS011;9456;47.824;16.228;2023-06-05T02:35:13;19.10;;;17.10;;
18653;SDS011;9456;47.824;16.228;2023-06-05T02:37:42;20.23;;;17.60;;
18653;SDS011;9456;47.824;16.228;2023-06-05T02:40:11;23.73;;;17.57;;
18653;SDS011;9456;47.824;16.228;2023-06-05T02:42:40;19.37;;;17.30;;
18653;SDS011;9456;47.824;16.228;2023-06-05T02:45:10;19.27;;;17.27;;
18653;SDS011;9456;47.824;16.228;2023-06-05T02:47:39;24.83;;;17.90;;
18653;SDS011;9456;47.824;16.228;2023-06-05T02:50:08;20.23;;;17.13;;
18653;SDS011;9456;47.824;16.228;2023-06-05T02:52:37;21.90;;;17.13;;
18653;SDS011;9456;47.824;16.228;2023-06-05T02:55:06;21.43;;;17.47;;
18653;SDS011;9456;47.824;16.228;2023-06-05T02:57:36;20.47;;;18.37;;
18653;SDS011;9456;47.824;16.228;2023-06-05T03:00:09;20.80;;;18.43;;
18653;SDS011;9456;47.824;16.228;2023-06-05T03:02:39;20.87;;;18.60;;
18653;SDS011;9456;47.824;16.228;2023-06-05T03:05:09;20.50;;;18.20;;
18653;SDS011;9456;47.824;16.228;2023-06-05T03:07:38;23.53;;;19.17;;
18653;SDS011;9456;47.824;16.228;2023-06-05T03:10:09;25.20;;;19.93;;
18653;SDS011;9456;47.824;16.228;2023-06-05T03:12:38;26.23;;;22.23;;
18653;SDS011;9456;47.824;16.228;2023-06-05T03:15:08;24.30;;;20.80;;
18653;SDS011;9456;47.824;16.228;2023-06-05T03:17:37;23.97;;;21.33;;
18653;SDS011;9456;47.824;16.228;2023-06-05T03:20:07;23.93;;;20.73;;
18653;SDS011;9456;47.824;16.228;2023-06-05T03:22:36;26.97;;;23.00;;
18653;SDS011;9456;47.824;16.228;2023-06-05T03:25:06;30.43;;;21.50;;
18653;SDS011;9456;47.824;16.228;2023-06-05T03:27:35;25.23;;;22.60;;
18653;SDS011;9456;47.824;16.228;2023-06-05T03:30:05;23.17;;;20.53;;
18653;SDS011;9456;47.824;16.228;2023-06-05T03:32:35;25.43;;;21.73;;
18653;SDS011;9456;47.824;16.228;2023-06-05T03:35:05;22.17;;;19.70;;
18653;SDS011;9456;47.824;16.228;2023-06-05T03:37:34;24.43;;;20.03;;
18653;SDS011;9456;47.824;16.228;2023-06-05T03:40:04;26.80;;;23.10;;
18653;SDS011;9456;47.824;16.228;2023-06-05T03:42:34;24.27;;;20.73;;
18653;SDS011;9456;47.824;16.228;2023-06-05T03:45:03;28.97;;;23.10;;
18653;SDS011;9456;47.824;16.228;2023-06-05T03:47:33;24.70;;;21.07;;
18653;SDS011;9456;47.824;16.228;2023-06-05T03:50:02;28.37;;;21.60;;
18653;SDS011;9456;47.824;16.228;2023-06-05T03:52:32;23.17;;;20.43;;
18653;SDS011;9456;47.824;16.228;2023-06-05T03:55:01;25.20;;;22.27;;
18653;SDS011;9456;47.824;16.228;2023-06-05T03:57:30;24.93;;;22.23;;
18653;SDS011;9456;47.824;16.228;2023-06-05T03:59:59;23.33;;;20.83;;
18653;SDS011;9456;47.824;16.228;2023-06-05T04:02:28;27.50;;;23.47;;
18653;SDS011;9456;47.824;16.228;2023-06-05T04:04:57;24.50;;;21.70;;
18653;SDS011;9456;47.824;16.228;2023-06-05T04:07:27;26.00;;;23.23;;
18653;SDS011;9456;47.824;16.228;2023-06-05T04:09:56;29.27;;;22.57;;
18653;SDS011;9456;47.824;16.228;2023-06-05T04:12:25;26.07;;;22.33;;
18653;SDS011;9456;47.824;16.228;2023-06-05T04:14:54;27.00;;;23.33;;
18653;SDS011;9456;47.824;16.228;2023-06-05T04:17:23;23.33;;;20.80;;
18653;SDS011;9456;47.824;16.228;2023-06-05T04:19:52;24.60;;;21.90;;
18653;SDS011;9456;47.824;16.228;2023-06-05T04:22:21;26.10;;;21.90;;
18653;SDS011;9456;47.824;16.228;2023-06-05T04:24:50;23.43;;;20.97;;
18653;SDS011;9456;47.824;16.228;2023-06-05T04:27:19;22.83;;;19.77;;
18653;SDS011;9456;47.824;16.228;2023-06-05T04:29:48;23.03;;;19.90;;
18653;SDS011;9456;47.824;16.228;2023-06-05T04:32:17;24.40;;;21.13;;
18653;SDS011;9456;47.824;16.228;2023-06-05T04:34:46;26.77;;;21.73;;
18653;SDS011;9456;47.824;16.228;2023-06-05T04:37:15;24.23;;;21.60;;
18653;SDS011;9456;47.824;16.228;2023-06-05T04:39:44;26.33;;;21.50;;
18653;SDS011;9456;47.824;16.228;2023-06-05T04:42:13;20.93;;;18.47;;
18653;SDS011;9456;47.824;16.228;2023-06-05T04:44:42;20.43;;;18.23;;
18653;SDS011;9456;47.824;16.228;2023-06-05T04:47:11;22.63;;;19.93;;
18653;SDS011;9456;47.824;16.228;2023-06-05T04:49:40;20.33;;;18.33;;
18653;SDS011;9456;47.824;16.228;2023-06-05T04:52:09;19.27;;;16.73;;
18653;SDS011;9456;47.824;16.228;2023-06-05T04:54:38;20.13;;;18.07;;
18653;SDS011;9456;47.824;16.228;2023-06-05T04:57:07;19.27;;;17.30;;
18653;SDS011;9456;47.824;16.228;2023-06-05T04:59:36;19.83;;;17.10;;
18653;SDS011;9456;47.824;16.228;2023-06-05T05:02:05;19.40;;;17.43;;
18653;SDS011;9456;47.824;16.228;2023-06-05T05:04:34;19.63;;;17.53;;
18653;SDS011;9456;47.824;16.228;2023-06-05T05:07:04;21.37;;;17.57;;
18653;SDS011;9456;47.824;16.228;2023-06-05T05:09:33;20.47;;;18.17;;
18653;SDS011;9456;47.824;16.228;2023-06-05T05:12:02;19.37;;;17.03;;
18653;SDS011;9456;47.824;16.228;2023-06-05T05:14:31;20.47;;;17.97;;
18653;SDS011;9456;47.824;16.228;2023-06-05T05:17:00;19.13;;;17.33;;
18653;SDS011;9456;47.824;16.228;2023-06-05T05:19:29;18.73;;;16.20;;
18653;SDS011;9456;47.824;16.228;2023-06-05T05:21:58;18.60;;;16.57;;
18653;SDS011;9456;47.824;16.228;2023-06-05T05:24:27;17.77;;;15.10;;
18653;SDS011;9456;47.824;16.228;2023-06-05T05:26:56;18.17;;;15.93;;
18653;SDS011;9456;47.824;16.228;2023-06-05T05:29:25;16.63;;;14.87;;
18653;SDS011;9456;47.824;16.228;2023-06-05T05:31:54;16.70;;;15.00;;
18653;SDS011;9456;47.824;16.228;2023-06-05T05:34:23;19.33;;;15.00;;
18653;SDS011;9456;47.824;16.228;2023-06-05T05:36:52;18.40;;;14.13;;
18653;SDS011;9456;47.824;16.228;2023-06-05T05:39:21;15.43;;;13.93;;
18653;SDS011;9456;47.824;16.228;2023-06-05T05:41:50;12.47;;;11.10;;
18653;SDS011;9456;47.824;16.228;2023-06-05T05:44:19;14.43;;;12.90;;
18653;SDS011;9456;47.824;16.228;2023-06-05T05:46:48;13.70;;;12.10;;
18653;SDS011;9456;47.824;16.228;2023-06-05T05:49:18;13.67;;;12.30;;
18653;SDS011;9456;47.824;16.228;2023-06-05T05:51:47;12.73;;;11.50;;
18653;SDS011;9456;47.824;16.228;2023-06-05T05:54:16;13.33;;;12.03;;
18653;SDS011;9456;47.824;16.228;2023-06-05T05:56:45;11.80;;;10.60;;
18653;SDS011;9456;47.824;16.228;2023-06-05T05:59:14;10.47;;;9.53;;
18653;SDS011;9456;47.824;16.228;2023-06-05T06:01:43;11.30;;;10.13;;
18653;SDS011;9456;47.824;16.228;2023-06-05T06:04:12;11.77;;;10.57;;
18653;SDS011;9456;47.824;16.228;2023-06-05T06:06:41;10.93;;;9.90;;
18653;SDS011;9456;47.824;16.228;2023-06-05T06:09:10;10.73;;;9.70;;
18653;SDS011;9456;47.824;16.228;2023-06-05T06:11:39;11.17;;;9.27;;
18653;SDS011;9456;47.824;16.228;2023-06-05T06:14:10;12.87;;;10.07;;
18653;SDS011;9456;47.824;16.228;2023-06-05T06:16:40;12.70;;;10.23;;
18653;SDS011;9456;47.824;16.228;2023-06-05T06:19:12;12.63;;;10.53;;
18653;SDS011;9456;47.824;16.228;2023-06-05T06:21:41;14.00;;;10.57;;
18653;SDS011;9456;47.824;16.228;2023-06-05T06:24:10;12.20;;;10.83;;
18653;SDS011;9456;47.824;16.228;2023-06-05T06:26:39;13.40;;;11.50;;
18653;SDS011;9456;47.824;16.228;2023-06-05T06:29:08;13.20;;;11.90;;
18653;SDS011;9456;47.824;16.228;2023-06-05T06:31:38;13.27;;;11.97;;
18653;SDS011;9456;47.824;16.228;2023-06-05T06:34:07;13.13;;;11.67;;
18653;SDS011;9456;47.824;16.228;2023-06-05T06:36:37;12.70;;;10.47;;
18653;SDS011;9456;47.824;16.228;2023-06-05T06:39:06;9.90;;;8.97;;
18653;SDS011;9456;47.824;16.228;2023-06-05T06:41:36;9.93;;;8.90;;
18653;SDS011;9456;47.824;16.228;2023-06-05T06:44:04;11.07;;;8.63;;
18653;SDS011;9456;47.824;16.228;2023-06-05T06:46:33;12.57;;;9.57;;
18653;SDS011;9456;47.824;16.228;2023-06-05T06:49:02;10.07;;;8.70;;
18653;SDS011;9456;47.824;16.228;2023-06-05T06:51:31;10.33;;;9.27;;
18653;SDS011;9456;47.824;16.228;2023-06-05T06:54:00;9.93;;;8.83;;
18653;SDS011;9456;47.824;16.228;2023-06-05T06:56:29;9.73;;;8.73;;
18653;SDS011;9456;47.824;16.228;2023-06-05T06:58:58;10.50;;;8.83;;
18653;SDS011;9456;47.824;16.228;2023-06-05T07:01:27;9.90;;;8.70;;
18653;SDS011;9456;47.824;16.228;2023-06-05T07:03:56;9.83;;;8.83;;
18653;SDS011;9456;47.824;16.228;2023-06-05T07:06:25;9.67;;;8.80;;
18653;SDS011;9456;47.824;16.228;2023-06-05T07:08:54;10.90;;;9.17;;
18653;SDS011;9456;47.824;16.228;2023-06-05T07:11:23;12.03;;;9.87;;
18653;SDS011;9456;47.824;16.228;2023-06-05T07:13:52;13.13;;;10.27;;
18653;SDS011;9456;47.824;16.228;2023-06-05T07:16:21;12.47;;;11.03;;
18653;SDS011;9456;47.824;16.228;2023-06-05T07:18:51;11.33;;;10.13;;
18653;SDS011;9456;47.824;16.228;2023-06-05T07:21:20;13.17;;;9.83;;
18653;SDS011;9456;47.824;16.228;2023-06-05T07:23:49;11.43;;;10.27;;
18653;SDS011;9456;47.824;16.228;2023-06-05T07:26:18;11.97;;;10.77;;
18653;SDS011;9456;47.824;16.228;2023-06-05T07:28:47;11.67;;;10.50;;
18653;SDS011;9456;47.824;16.228;2023-06-05T07:31:16;12.40;;;11.10;;
18653;SDS011;9456;47.824;16.228;2023-06-05T07:33:45;11.97;;;9.80;;
18653;SDS011;9456;47.824;16.228;2023-06-05T07:36:14;13.50;;;11.73;;
18653;SDS011;9456;47.824;16.228;2023-06-05T07:38:43;12.03;;;10.83;;
18653;SDS011;9456;47.824;16.228;2023-06-05T07:41:12;15.40;;;11.13;;
18653;SDS011;9456;47.824;16.228;2023-06-05T07:43:41;12.63;;;9.77;;
18653;SDS011;9456;47.824;16.228;2023-06-05T07:46:10;11.10;;;10.00;;
18653;SDS011;9456;47.824;16.228;2023-06-05T07:48:39;10.40;;;9.33;;
18653;SDS011;9456;47.824;16.228;2023-06-05T07:51:09;9.30;;;8.33;;
18653;SDS011;9456;47.824;16.228;2023-06-05T07:53:38;9.73;;;8.77;;
18653;SDS011;9456;47.824;16.228;2023-06-05T07:56:07;9.63;;;8.23;;
18653;SDS011;9456;47.824;16.228;2023-06-05T07:58:36;11.63;;;8.10;;
18653;SDS011;9456;47.824;16.228;2023-06-05T08:01:05;8.57;;;7.67;;
18653;SDS011;9456;47.824;16.228;2023-06-05T08:03:34;9.13;;;7.10;;
18653;SDS011;9456;47.824;16.228;2023-06-05T08:06:03;8.33;;;7.13;;
18653;SDS011;9456;47.824;16.228;2023-06-05T08:08:32;7.93;;;7.13;;
18653;SDS011;9456;47.824;16.228;2023-06-05T08:11:01;8.73;;;7.47;;
18653;SDS011;9456;47.824;16.228;2023-06-05T08:13:30;8.47;;;6.80;;
18653;SDS011;9456;47.824;16.228;2023-06-05T08:15:59;9.17;;;7.47;;
18653;SDS011;9456;47.824;16.228;2023-06-05T08:18:28;7.57;;;6.87;;
18653;SDS011;9456;47.824;16.228;2023-06-05T08:20:58;8.23;;;7.20;;
18653;SDS011;9456;47.824;16.228;2023-06-05T08:23:28;8.27;;;7.47;;
18653;SDS011;9456;47.824;16.228;2023-06-05T08:25:57;15.70;;;6.57;;
18653;SDS011;9456;47.824;16.228;2023-06-05T08:28:26;9.90;;;7.37;;
18653;SDS011;9456;47.824;16.228;2023-06-05T08:30:55;8.37;;;7.10;;
18653;SDS011;9456;47.824;16.228;2023-06-05T08:33:24;9.47;;;7.20;;
18653;SDS011;9456;47.824;16.228;2023-06-05T08:35:53;8.03;;;7.23;;
18653;SDS011;9456;47.824;16.228;2023-06-05T08:38:22;7.73;;;6.90;;
18653;SDS011;9456;47.824;16.228;2023-06-05T08:40:52;10.83;;;7.57;;
18653;SDS011;9456;47.824;16.228;2023-06-05T08:43:23;7.10;;;6.43;;
18653;SDS011;9456;47.824;16.228;2023-06-05T08:45:53;9.03;;;7.43;;
18653;SDS011;9456;47.824;16.228;2023-06-05T08:48:22;8.93;;;6.87;;
18653;SDS011;9456;47.824;16.228;2023-06-05T08:50:51;9.87;;;6.70;;
18653;SDS011;9456;47.824;16.228;2023-06-05T08:53:21;9.63;;;7.23;;
18653;SDS011;9456;47.824;16.228;2023-06-05T08:55:51;10.40;;;7.17;;
18653;SDS011;9456;47.824;16.228;2023-06-05T08:58:18;12.43;;;7.40;;
18653;SDS011;9456;47.824;16.228;2023-06-05T09:00:48;9.33;;;6.80;;
18653;SDS011;9456;47.824;16.228;2023-06-05T09:03:16;8.33;;;7.53;;
18653;SDS011;9456;47.824;16.228;2023-06-05T09:05:45;8.47;;;7.53;;
18653;SDS011;9456;47.824;16.228;2023-06-05T09:08:17;8.70;;;7.80;;
18653;SDS011;9456;47.824;16.228;2023-06-05T09:10:46;9.80;;;7.23;;
18653;SDS011;9456;47.824;16.228;2023-06-05T09:13:15;7.40;;;6.70;;
18653;SDS011;9456;47.824;16.228;2023-06-05T09:15:45;8.67;;;6.93;;
18653;SDS011;9456;47.824;16.228;2023-06-05T09:18:13;9.70;;;7.37;;
18653;SDS011;9456;47.824;16.228;2023-06-05T09:20:44;17.23;;;6.53;;
18653;SDS011;9456;47.824;16.228;2023-06-05T09:23:24;9.00;;;6.10;;
18653;SDS011;9456;47.824;16.228;2023-06-05T09:25:52;6.47;;;5.77;;
18653;SDS011;9456;47.824;16.228;2023-06-05T09:28:21;7.27;;;6.57;;
18653;SDS011;9456;47.824;16.228;2023-06-05T09:30:54;9.90;;;6.93;;
18653;SDS011;9456;47.824;16.228;2023-06-05T09:33:24;7.23;;;5.80;;
18653;SDS011;9456;47.824;16.228;2023-06-05T09:36:02;6.57;;;5.97;;
18653;SDS011;9456;47.824;16.228;2023-06-05T09:38:31;8.60;;;6.20;;
18653;SDS011;9456;47.824;16.228;2023-06-05T09:41:05;8.07;;;6.20;;
18653;SDS011;9456;47.824;16.228;2023-06-05T09:43:33;9.73;;;5.87;;
18653;SDS011;9456;47.824;16.228;2023-06-05T09:46:09;7.33;;;5.60;;
18653;SDS011;9456;47.824;16.228;2023-06-05T09:48:38;7.67;;;6.23;;
18653;SDS011;9456;47.824;16.228;2023-06-05T09:51:10;6.20;;;5.57;;
18653;SDS011;9456;47.824;16.228;2023-06-05T09:53:41;10.97;;;6.00;;
18653;SDS011;9456;47.824;16.228;2023-06-05T09:56:12;8.83;;;6.47;;
18653;SDS011;9456;47.824;16.228;2023-06-05T09:58:43;9.00;;;6.30;;
18653;SDS011;9456;47.824;16.228;2023-06-05T10:01:12;8.73;;;6.30;;
18653;SDS011;9456;47.824;16.228;2023-06-05T10:03:44;7.70;;;6.17;;
18653;SDS011;9456;47.824;16.228;2023-06-05T10:06:12;6.70;;;6.07;;
18653;SDS011;9456;47.824;16.228;2023-06-05T10:08:41;10.57;;;5.83;;
18653;SDS011;9456;47.824;16.228;2023-06-05T10:11:11;8.97;;;6.10;;
18653;SDS011;9456;47.824;16.228;2023-06-05T10:13:40;8.07;;;6.00;;
18653;SDS011;9456;47.824;16.228;2023-06-05T10:16:09;6.70;;;5.60;;
18653;SDS011;9456;47.824;16.228;2023-06-05T10:18:38;9.27;;;6.67;;
18653;SDS011;9456;47.824;16.228;2023-06-05T10:21:07;8.50;;;6.37;;
18653;SDS011;9456;47.824;16.228;2023-06-05T10:23:36;7.43;;;5.77;;
18653;SDS011;9456;47.824;16.228;2023-06-05T10:28:46;8.33;;;5.97;;
18653;SDS011;9456;47.824;16.228;2023-06-05T10:31:20;9.10;;;6.03;;
18653;SDS011;9456;47.824;16.228;2023-06-05T10:33:51;9.83;;;6.27;;
18653;SDS011;9456;47.824;16.228;2023-06-05T10:39:22;14.10;;;6.10;;
18653;SDS011;9456;47.824;16.228;2023-06-05T10:41:51;10.57;;;6.10;;
18653;SDS011;9456;47.824;16.228;2023-06-05T10:44:21;8.17;;;6.73;;
18653;SDS011;9456;47.824;16.228;2023-06-05T10:50:21;6.70;;;5.87;;
18653;SDS011;9456;47.824;16.228;2023-06-05T10:53:00;7.40;;;6.03;;
18653;SDS011;9456;47.824;16.228;2023-06-05T10:55:41;8.30;;;6.53;;
18653;SDS011;9456;47.824;16.228;2023-06-05T10:58:10;8.97;;;6.00;;
18653;SDS011;9456;47.824;16.228;2023-06-05T11:01:14;9.07;;;6.73;;
18653;SDS011;9456;47.824;16.228;2023-06-05T11:03:40;9.23;;;6.77;;
18653;SDS011;9456;47.824;16.228;2023-06-05T11:06:28;8.07;;;6.03;;
18653;SDS011;9456;47.824;16.228;2023-06-05T11:09:13;6.93;;;5.03;;
18653;SDS011;9456;47.824;16.228;2023-06-05T11:11:57;6.90;;;5.23;;
18653;SDS011;9456;47.824;16.228;2023-06-05T11:14:42;5.30;;;4.73;;
18653;SDS011;9456;47.824;16.228;2023-06-05T11:17:28;5.73;;;5.13;;
18653;SDS011;9456;47.824;16.228;2023-06-05T11:19:57;5.77;;;5.13;;
18653;SDS011;9456;47.824;16.228;2023-06-05T11:22:26;4.77;;;4.37;;
18653;SDS011;9456;47.824;16.228;2023-06-05T11:27:56;5.60;;;5.07;;
18653;SDS011;9456;47.824;16.228;2023-06-05T11:30:27;5.47;;;5.00;;
18653;SDS011;9456;47.824;16.228;2023-06-05T11:32:54;7.73;;;4.63;;
18653;SDS011;9456;47.824;16.228;2023-06-05T11:35:24;6.33;;;4.77;;
18653;SDS011;9456;47.824;16.228;2023-06-05T11:38:08;4.87;;;4.33;;
18653;SDS011;9456;47.824;16.228;2023-06-05T11:40:37;7.47;;;4.93;;
18653;SDS011;9456;47.824;16.228;2023-06-05T11:43:06;6.30;;;5.07;;
18653;SDS011;9456;47.824;16.228;2023-06-05T11:45:36;5.30;;;4.80;;
18653;SDS011;9456;47.824;16.228;2023-06-05T11:48:05;6.23;;;5.60;;
18653;SDS011;9456;47.824;16.228;2023-06-05T11:50:35;5.77;;;5.10;;
18653;SDS011;9456;47.824;16.228;2023-06-05T11:53:04;7.10;;;5.07;;
18653;SDS011;9456;47.824;16.228;2023-06-05T11:55:33;5.30;;;4.47;;
18653;SDS011;9456;47.824;16.228;2023-06-05T11:58:11;5.60;;;5.10;;
18653;SDS011;9456;47.824;16.228;2023-06-05T12:00:40;5.97;;;5.37;;
18653;SDS011;9456;47.824;16.228;2023-06-05T12:03:17;5.17;;;4.67;;
18653;SDS011;9456;47.824;16.228;2023-06-05T12:05:47;5.90;;;5.03;;
18653;SDS011;9456;47.824;16.228;2023-06-05T12:08:22;7.20;;;5.10;;
18653;SDS011;9456;47.824;16.228;2023-06-05T12:10:52;8.57;;;7.60;;
18653;SDS011;9456;47.824;16.228;2023-06-05T12:13:21;6.57;;;5.43;;
18653;SDS011;9456;47.824;16.228;2023-06-05T12:15:59;7.33;;;5.50;;
18653;SDS011;9456;47.824;16.228;2023-06-05T12:18:31;6.33;;;5.50;;
18653;SDS011;9456;47.824;16.228;2023-06-05T12:21:01;8.03;;;6.13;;
18653;SDS011;9456;47.824;16.228;2023-06-05T12:23:32;6.67;;;5.87;;
18653;SDS011;9456;47.824;16.228;2023-06-05T12:26:01;8.17;;;6.10;;
18653;SDS011;9456;47.824;16.228;2023-06-05T12:28:30;5.73;;;5.23;;
18653;SDS011;9456;47.824;16.228;2023-06-05T12:30:59;6.97;;;5.40;;
18653;SDS011;9456;47.824;16.228;2023-06-05T12:33:28;6.60;;;6.00;;
18653;SDS011;9456;47.824;16.228;2023-06-05T12:36:04;6.67;;;4.93;;
18653;SDS011;9456;47.824;16.228;2023-06-05T12:38:37;6.10;;;5.20;;
18653;SDS011;9456;47.824;16.228;2023-06-05T12:41:06;5.27;;;4.87;;
18653;SDS011;9456;47.824;16.228;2023-06-05T12:43:35;5.03;;;4.40;;
18653;SDS011;9456;47.824;16.228;2023-06-05T12:46:04;4.50;;;4.10;;
18653;SDS011;9456;47.824;16.228;2023-06-05T12:48:35;8.83;;;4.50;;
18653;SDS011;9456;47.824;16.228;2023-06-05T12:51:05;5.57;;;4.80;;
18653;SDS011;9456;47.824;16.228;2023-06-05T12:53:35;4.33;;;3.77;;
18653;SDS011;9456;47.824;16.228;2023-06-05T12:56:05;4.43;;;4.03;;
18653;SDS011;9456;47.824;16.228;2023-06-05T12:58:34;5.93;;;4.00;;
18653;SDS011;9456;47.824;16.228;2023-06-05T13:01:03;5.50;;;4.17;;
18653;SDS011;9456;47.824;16.228;2023-06-05T13:03:32;5.30;;;4.07;;
18653;SDS011;9456;47.824;16.228;2023-06-05T13:06:10;3.60;;;3.30;;
18653;SDS011;9456;47.824;16.228;2023-06-05T13:08:40;8.30;;;3.93;;
18653;SDS011;9456;47.824;16.228;2023-06-05T13:11:09;4.27;;;3.87;;
18653;SDS011;9456;47.824;16.228;2023-06-05T13:13:38;4.70;;;4.20;;
18653;SDS011;9456;47.824;16.228;2023-06-05T13:16:07;5.10;;;4.37;;
18653;SDS011;9456;47.824;16.228;2023-06-05T13:18:36;5.30;;;4.30;;
18653;SDS011;9456;47.824;16.228;2023-06-05T13:21:05;4.87;;;4.30;;
18653;SDS011;9456;47.824;16.228;2023-06-05T13:23:45;8.03;;;4.47;;
18653;SDS011;9456;47.824;16.228;2023-06-05T13:26:14;4.87;;;4.43;;
18653;SDS011;9456;47.824;16.228;2023-06-05T13:28:43;7.20;;;5.07;;
18653;SDS011;9456;47.824;16.228;2023-06-05T13:31:12;5.40;;;4.47;;
18653;SDS011;9456;47.824;16.228;2023-06-05T13:33:42;5.77;;;4.67;;
18653;SDS011;9456;47.824;16.228;2023-06-05T13:36:12;5.27;;;4.73;;
18653;SDS011;9456;47.824;16.228;2023-06-05T13:38:41;6.23;;;4.67;;
18653;SDS011;9456;47.824;16.228;2023-06-05T13:41:10;4.80;;;4.43;;
18653;SDS011;9456;47.824;16.228;2023-06-05T13:43:39;6.53;;;5.77;;
18653;SDS011;9456;47.824;16.228;2023-06-05T13:46:08;7.77;;;5.20;;
18653;SDS011;9456;47.824;16.228;2023-06-05T13:48:37;5.33;;;4.67;;
18653;SDS011;9456;47.824;16.228;2023-06-05T13:51:06;7.47;;;4.37;;
18653;SDS011;9456;47.824;16.228;2023-06-05T13:53:35;5.57;;;5.03;;
18653;SDS011;9456;47.824;16.228;2023-06-05T13:56:04;6.77;;;5.80;;
18653;SDS011;9456;47.824;16.228;2023-06-05T13:58:34;7.00;;;6.10;;
18653;SDS011;9456;47.824;16.228;2023-06-05T14:01:03;7.90;;;6.40;;
18653;SDS011;9456;47.824;16.228;2023-06-05T14:03:33;7.63;;;6.53;;
18653;SDS011;9456;47.824;16.228;2023-06-05T14:06:02;7.23;;;6.53;;
18653;SDS011;9456;47.824;16.228;2023-06-05T14:08:31;12.00;;;6.23;;
18653;SDS011;9456;47.824;16.228;2023-06-05T14:11:00;10.63;;;6.57;;
18653;SDS011;9456;47.824;16.228;2023-06-05T14:13:29;11.40;;;6.70;;
18653;SDS011;9456;47.824;16.228;2023-06-05T14:15:58;5.90;;;5.40;;
18653;SDS011;9456;47.824;16.228;2023-06-05T14:18:27;6.87;;;6.17;;
18653;SDS011;9456;47.824;16.228;2023-06-05T14:20:57;5.90;;;5.40;;
18653;SDS011;9456;47.824;16.228;2023-06-05T14:23:26;5.80;;;5.40;;
18653;SDS011;9456;47.824;16.228;2023-06-05T14:25:55;6.50;;;5.90;;
18653;SDS011;9456;47.824;16.228;2023-06-05T14:28:24;5.57;;;5.10;;
18653;SDS011;9456;47.824;16.228;2023-06-05T14:30:53;6.43;;;5.90;;
18653;SDS011;9456;47.824;16.228;2023-06-05T14:33:23;7.67;;;5.53;;
18653;SDS011;9456;47.824;16.228;2023-06-05T14:35:53;5.60;;;5.10;;
18653;SDS011;9456;47.824;16.228;2023-06-05T14:38:22;7.23;;;5.20;;
18653;SDS011;9456;47.824;16.228;2023-06-05T14:40:51;6.80;;;5.50;;
18653;SDS011;9456;47.824;16.228;2023-06-05T14:43:20;6.93;;;6.33;;
18653;SDS011;9456;47.824;16.228;2023-06-05T14:45:49;7.33;;;6.63;;
18653;SDS011;9456;47.824;16.228;2023-06-05T14:48:18;14.03;;;6.93;;
18653;SDS011;9456;47.824;16.228;2023-06-05T14:50:47;8.63;;;7.77;;
18653;SDS011;9456;47.824;16.228;2023-06-05T14:53:16;8.67;;;7.63;;
18653;SDS011;9456;47.824;16.228;2023-06-05T14:55:45;11.93;;;8.07;;
18653;SDS011;9456;47.824;16.228;2023-06-05T14:58:15;12.47;;;8.43;;
18653;SDS011;9456;47.824;16.228;2023-06-05T15:00:44;11.07;;;7.97;;
18653;SDS011;9456;47.824;16.228;2023-06-05T15:03:12;16.97;;;9.20;;
18653;SDS011;9456;47.824;16.228;2023-06-05T15:05:41;8.77;;;7.43;;